sensor_id;sensor_type;location;lat;lon;timestamp;pressure;altitude;pressure_sealevel;temperature;humidity
56912;BME280;42800;53.928;27.662;2023-02-04T00:01:28;97887.34;;;-1.46;100.00
56912;BME280;42800;53.928;27.662;2023-02-04T00:03:54;97892.56;;;-1.58;100.00
56912;BME280;42800;53.928;27.662;2023-02-04T00:06:20;97900.13;;;-1.78;100.00
56912;BME280;42800;53.928;27.662;2023-02-04T00:08:47;97919.78;;;-2.17;100.00
56912;BME280;42800;53.928;27.662;2023-02-04T00:11:13;97961.38;;;-2.06;100.00
56912;BME280;42800;53.928;27.662;2023-02-04T00:13:39;97983.00;;;-2.11;100.00
56912;BME280;42800;53.928;27.662;2023-02-04T00:16:06;98005.81;;;-2.31;100.00
56912;BME280;42800;53.928;27.662;2023-02-04T00:18:32;98034.34;;;-2.13;100.00
56912;BME280;42800;53.928;27.662;2023-02-04T00:20:59;98042.25;;;-2.07;100.00
56912;BME280;42800;53.928;27.662;2023-02-04T00:23:25;98048.41;;;-2.07;100.00
56912;BME280;42800;53.928;27.662;2023-02-04T00:25:52;98051.78;;;-1.93;100.00
56912;BME280;42800;53.928;27.662;2023-02-04T00:28:18;98050.84;;;-1.88;100.00
56912;BME280;42800;53.928;27.662;2023-02-04T00:30:44;98030.72;;;-2.62;100.00
56912;BME280;42800;53.928;27.662;2023-02-04T00:33:11;98086.56;;;-2.19;100.00
56912;BME280;42800;53.928;27.662;2023-02-04T00:35:38;98116.47;;;-2.34;100.00
56912;BME280;42800;53.928;27.662;2023-02-04T00:38:05;98130.00;;;-2.17;100.00
56912;BME280;42800;53.928;27.662;2023-02-04T00:40:31;98135.25;;;-2.34;100.00
56912;BME280;42800;53.928;27.662;2023-02-04T00:42:58;98188.53;;;-2.27;100.00
56912;BME280;42800;53.928;27.662;2023-02-04T00:45:24;98200.03;;;-2.13;100.00
56912;BME280;42800;53.928;27.662;2023-02-04T00:47:51;98203.56;;;-2.26;100.00
56912;BME280;42800;53.928;27.662;2023-02-04T00:50:17;98249.38;;;-2.59;100.00
56912;BME280;42800;53.928;27.662;2023-02-04T00:52:44;98297.16;;;-2.75;100.00
56912;BME280;42800;53.928;27.662;2023-02-04T00:55:10;98354.41;;;-2.66;100.00
56912;BME280;42800;53.928;27.662;2023-02-04T00:57:36;98371.41;;;-2.29;100.00
56912;BME280;42800;53.928;27.662;2023-02-04T01:00:05;98322.28;;;-2.57;100.00
56912;BME280;42800;53.928;27.662;2023-02-04T01:02:31;98350.94;;;-2.39;100.00
56912;BME280;42800;53.928;27.662;2023-02-04T01:04:57;98334.25;;;-2.63;100.00
56912;BME280;42800;53.928;27.662;2023-02-04T01:07:24;98363.84;;;-2.41;100.00
56912;BME280;42800;53.928;27.662;2023-02-04T01:09:50;98341.00;;;-2.79;100.00
56912;BME280;42800;53.928;27.662;2023-02-04T01:12:16;98418.63;;;-2.55;100.00
56912;BME280;42800;53.928;27.662;2023-02-04T01:14:42;98414.75;;;-2.35;100.00
56912;BME280;42800;53.928;27.662;2023-02-04T01:17:09;98375.78;;;-2.47;100.00
56912;BME280;42800;53.928;27.662;2023-02-04T01:19:35;98395.78;;;-2.53;100.00
56912;BME280;42800;53.928;27.662;2023-02-04T01:22:02;98389.91;;;-2.41;100.00
56912;BME280;42800;53.928;27.662;2023-02-04T01:24:28;98387.22;;;-2.69;100.00
56912;BME280;42800;53.928;27.662;2023-02-04T01:26:54;98440.16;;;-2.61;100.00
56912;BME280;42800;53.928;27.662;2023-02-04T01:29:20;98438.25;;;-2.74;100.00
56912;BME280;42800;53.928;27.662;2023-02-04T01:31:46;98477.50;;;-2.78;100.00
56912;BME280;42800;53.928;27.662;2023-02-04T01:34:13;98509.06;;;-2.56;100.00
56912;BME280;42800;53.928;27.662;2023-02-04T01:36:39;98479.03;;;-2.58;100.00
56912;BME280;42800;53.928;27.662;2023-02-04T01:39:06;98438.25;;;-2.74;100.00
56912;BME280;42800;53.928;27.662;2023-02-04T01:41:32;98476.66;;;-2.59;100.00
56912;BME280;42800;53.928;27.662;2023-02-04T01:43:58;98491.47;;;-2.62;100.00
56912;BME280;42800;53.928;27.662;2023-02-04T01:46:25;98484.63;;;-2.41;100.00
56912;BME280;42800;53.928;27.662;2023-02-04T01:48:51;98443.38;;;-2.45;100.00
56912;BME280;42800;53.928;27.662;2023-02-04T01:51:23;98434.13;;;-2.52;100.00
56912;BME280;42800;53.928;27.662;2023-02-04T01:53:52;98447.25;;;-2.51;100.00
56912;BME280;42800;53.928;27.662;2023-02-04T01:56:22;98439.59;;;-2.44;100.00
56912;BME280;42800;53.928;27.662;2023-02-04T01:58:51;98423.78;;;-2.59;100.00
56912;BME280;42800;53.928;27.662;2023-02-04T02:01:33;98465.97;;;-2.78;100.00
56912;BME280;42800;53.928;27.662;2023-02-04T02:04:00;98519.22;;;-2.86;100.00
56912;BME280;42800;53.928;27.662;2023-02-04T02:06:27;98572.13;;;-2.72;100.00
56912;BME280;42800;53.928;27.662;2023-02-04T02:08:54;98604.53;;;-2.88;100.00
56912;BME280;42800;53.928;27.662;2023-02-04T02:11:20;98653.09;;;-3.08;100.00
56912;BME280;42800;53.928;27.662;2023-02-04T02:13:46;98692.03;;;-2.92;100.00
56912;BME280;42800;53.928;27.662;2023-02-04T02:16:13;98667.81;;;-3.05;100.00
56912;BME280;42800;53.928;27.662;2023-02-04T02:18:39;98687.03;;;-2.98;100.00
56912;BME280;42800;53.928;27.662;2023-02-04T02:21:08;98665.59;;;-2.79;100.00
56912;BME280;42800;53.928;27.662;2023-02-04T02:23:47;98622.31;;;-2.92;100.00
56912;BME280;42800;53.928;27.662;2023-02-04T02:26:15;98613.69;;;-2.89;100.00
56912;BME280;42800;53.928;27.662;2023-02-04T02:28:43;98587.56;;;-3.02;100.00
56912;BME280;42800;53.928;27.662;2023-02-04T02:31:10;98586.50;;;-3.20;100.00
56912;BME280;42800;53.928;27.662;2023-02-04T02:33:36;98621.97;;;-3.28;100.00
56912;BME280;42800;53.928;27.662;2023-02-04T02:36:03;98643.28;;;-3.18;100.00
56912;BME280;42800;53.928;27.662;2023-02-04T02:38:29;98640.31;;;-3.40;100.00
56912;BME280;42800;53.928;27.662;2023-02-04T02:40:56;98671.47;;;-3.44;100.00
56912;BME280;42800;53.928;27.662;2023-02-04T02:43:25;98696.91;;;-3.42;100.00
56912;BME280;42800;53.928;27.662;2023-02-04T02:45:53;98707.16;;;-3.49;100.00
56912;BME280;42800;53.928;27.662;2023-02-04T02:48:21;98737.81;;;-3.60;100.00
56912;BME280;42800;53.928;27.662;2023-02-04T02:50:48;98771.44;;;-3.73;100.00
56912;BME280;42800;53.928;27.662;2023-02-04T02:53:16;98816.13;;;-3.68;100.00
56912;BME280;42800;53.928;27.662;2023-02-04T02:55:44;98856.38;;;-3.79;100.00
56912;BME280;42800;53.928;27.662;2023-02-04T02:58:15;98899.53;;;-3.85;100.00
56912;BME280;42800;53.928;27.662;2023-02-04T03:00:42;98944.78;;;-3.79;100.00
56912;BME280;42800;53.928;27.662;2023-02-04T03:03:11;98964.91;;;-3.86;100.00
56912;BME280;42800;53.928;27.662;2023-02-04T03:05:41;98986.09;;;-4.00;100.00
56912;BME280;42800;53.928;27.662;2023-02-04T03:08:09;99029.22;;;-3.96;100.00
56912;BME280;42800;53.928;27.662;2023-02-04T03:10:36;99045.03;;;-4.05;100.00
56912;BME280;42800;53.928;27.662;2023-02-04T03:13:03;99083.63;;;-4.16;100.00
56912;BME280;42800;53.928;27.662;2023-02-04T03:15:30;99108.25;;;-4.19;100.00
56912;BME280;42800;53.928;27.662;2023-02-04T03:17:58;99153.19;;;-4.01;100.00
56912;BME280;42800;53.928;27.662;2023-02-04T03:20:26;99166.31;;;-3.89;100.00
56912;BME280;42800;53.928;27.662;2023-02-04T03:22:53;99141.97;;;-3.93;100.00
56912;BME280;42800;53.928;27.662;2023-02-04T03:25:20;99141.94;;;-3.83;100.00
56912;BME280;42800;53.928;27.662;2023-02-04T03:27:49;99147.06;;;-3.96;100.00
56912;BME280;42800;53.928;27.662;2023-02-04T03:30:15;99158.81;;;-3.87;100.00
56912;BME280;42800;53.928;27.662;2023-02-04T03:32:42;99144.88;;;-3.94;100.00
56912;BME280;42800;53.928;27.662;2023-02-04T03:35:08;99141.41;;;-4.00;100.00
56912;BME280;42800;53.928;27.662;2023-02-04T03:37:35;99148.09;;;-3.82;100.00
56912;BME280;42800;53.928;27.662;2023-02-04T03:40:01;99121.63;;;-4.09;100.00
56912;BME280;42800;53.928;27.662;2023-02-04T03:42:27;99129.84;;;-3.80;100.00
56912;BME280;42800;53.928;27.662;2023-02-04T03:44:53;99081.47;;;-4.24;100.00
56912;BME280;42800;53.928;27.662;2023-02-04T03:47:20;99110.38;;;-4.11;100.00
56912;BME280;42800;53.928;27.662;2023-02-04T03:49:46;99113.56;;;-4.04;100.00
56912;BME280;42800;53.928;27.662;2023-02-04T03:52:13;99095.88;;;-4.00;100.00
56912;BME280;42800;53.928;27.662;2023-02-04T03:54:39;99069.13;;;-4.05;100.00
56912;BME280;42800;53.928;27.662;2023-02-04T03:57:05;99052.00;;;-4.09;100.00
56912;BME280;42800;53.928;27.662;2023-02-04T03:59:31;99056.59;;;-4.25;100.00
56912;BME280;42800;53.928;27.662;2023-02-04T04:01:58;99073.44;;;-4.50;100.00
56912;BME280;42800;53.928;27.662;2023-02-04T04:04:24;99114.34;;;-3.88;100.00
56912;BME280;42800;53.928;27.662;2023-02-04T04:06:51;99077.94;;;-3.89;100.00
56912;BME280;42800;53.928;27.662;2023-02-04T04:09:17;99050.94;;;-4.18;100.00
56912;BME280;42800;53.928;27.662;2023-02-04T04:11:43;99033.81;;;-4.17;100.00
56912;BME280;42800;53.928;27.662;2023-02-04T04:14:09;99044.97;;;-3.80;100.00
56912;BME280;42800;53.928;27.662;2023-02-04T04:16:36;98973.31;;;-4.18;100.00
56912;BME280;42800;53.928;27.662;2023-02-04T04:19:02;98994.16;;;-4.05;100.00
56912;BME280;42800;53.928;27.662;2023-02-04T04:21:28;98983.13;;;-3.88;100.00
56912;BME280;42800;53.928;27.662;2023-02-04T04:23:55;98954.69;;;-3.79;100.00
56912;BME280;42800;53.928;27.662;2023-02-04T04:26:21;98933.06;;;-3.93;100.00
56912;BME280;42800;53.928;27.662;2023-02-04T04:28:48;98911.94;;;-4.05;100.00
56912;BME280;42800;53.928;27.662;2023-02-04T04:31:14;98929.53;;;-3.83;100.00
56912;BME280;42800;53.928;27.662;2023-02-04T04:33:40;98901.13;;;-3.84;100.00
56912;BME280;42800;53.928;27.662;2023-02-04T04:36:07;98895.94;;;-3.70;100.00
56912;BME280;42800;53.928;27.662;2023-02-04T04:38:34;98886.09;;;-3.75;100.00
56912;BME280;42800;53.928;27.662;2023-02-04T04:41:00;98885.38;;;-3.91;100.00
56912;BME280;42800;53.928;27.662;2023-02-04T04:43:27;98867.16;;;-3.89;100.00
56912;BME280;42800;53.928;27.662;2023-02-04T04:45:53;98877.72;;;-4.13;100.00
56912;BME280;42800;53.928;27.662;2023-02-04T04:48:19;98910.31;;;-4.00;100.00
56912;BME280;42800;53.928;27.662;2023-02-04T04:50:46;98918.78;;;-3.78;100.00
56912;BME280;42800;53.928;27.662;2023-02-04T04:53:12;98915.16;;;-4.03;100.00
56912;BME280;42800;53.928;27.662;2023-02-04T04:55:39;98899.25;;;-3.84;100.00
56912;BME280;42800;53.928;27.662;2023-02-04T04:58:06;98890.94;;;-3.82;100.00
56912;BME280;42800;53.928;27.662;2023-02-04T05:00:33;98870.25;;;-3.71;100.00
56912;BME280;42800;53.928;27.662;2023-02-04T05:02:59;98813.09;;;-3.96;100.00
56912;BME280;42800;53.928;27.662;2023-02-04T05:05:26;98820.78;;;-3.84;100.00
56912;BME280;42800;53.928;27.662;2023-02-04T05:07:52;98800.53;;;-4.00;100.00
56912;BME280;42800;53.928;27.662;2023-02-04T05:10:19;98818.91;;;-4.33;100.00
56912;BME280;42800;53.928;27.662;2023-02-04T05:12:45;98878.72;;;-4.04;100.00
56912;BME280;42800;53.928;27.662;2023-02-04T05:15:12;98871.34;;;-4.27;100.00
56912;BME280;42800;53.928;27.662;2023-02-04T05:17:38;98905.25;;;-4.02;100.00
56912;BME280;42800;53.928;27.662;2023-02-04T05:20:05;98897.78;;;-4.10;100.00
56912;BME280;42800;53.928;27.662;2023-02-04T05:22:31;98878.63;;;-4.38;100.00
56912;BME280;42800;53.928;27.662;2023-02-04T05:24:57;98873.72;;;-4.20;100.00
56912;BME280;42800;53.928;27.662;2023-02-04T05:27:23;98887.53;;;-4.53;100.00
56912;BME280;42800;53.928;27.662;2023-02-04T05:29:50;98883.25;;;-4.64;100.00
56912;BME280;42800;53.928;27.662;2023-02-04T05:32:16;98944.31;;;-4.86;100.00
56912;BME280;42800;53.928;27.662;2023-02-04T05:34:43;98976.09;;;-4.90;100.00
56912;BME280;42800;53.928;27.662;2023-02-04T05:37:09;99005.53;;;-4.85;100.00
56912;BME280;42800;53.928;27.662;2023-02-04T05:39:35;99033.84;;;-4.74;100.00
56912;BME280;42800;53.928;27.662;2023-02-04T05:42:02;99027.47;;;-4.62;100.00
56912;BME280;42800;53.928;27.662;2023-02-04T05:44:28;99015.16;;;-4.53;100.00
56912;BME280;42800;53.928;27.662;2023-02-04T05:46:55;98984.34;;;-4.45;100.00
56912;BME280;42800;53.928;27.662;2023-02-04T05:49:22;98938.56;;;-4.34;100.00
56912;BME280;42800;53.928;27.662;2023-02-04T05:51:49;98905.88;;;-4.26;100.00
56912;BME280;42800;53.928;27.662;2023-02-04T05:54:15;98902.69;;;-4.28;100.00
56912;BME280;42800;53.928;27.662;2023-02-04T05:56:44;98856.38;;;-4.23;100.00
56912;BME280;42800;53.928;27.662;2023-02-04T05:59:10;98828.31;;;-4.36;100.00
56912;BME280;42800;53.928;27.662;2023-02-04T06:01:36;98810.94;;;-4.38;100.00
56912;BME280;42800;53.928;27.662;2023-02-04T06:04:03;98796.16;;;-4.31;100.00
56912;BME280;42800;53.928;27.662;2023-02-04T06:06:30;98772.06;;;-4.26;100.00
56912;BME280;42800;53.928;27.662;2023-02-04T06:08:56;98734.00;;;-4.17;100.00
56912;BME280;42800;53.928;27.662;2023-02-04T06:11:22;98702.41;;;-4.20;100.00
56912;BME280;42800;53.928;27.662;2023-02-04T06:13:49;98693.91;;;-3.93;100.00
56912;BME280;42800;53.928;27.662;2023-02-04T06:16:15;98628.03;;;-4.23;100.00
56912;BME280;42800;53.928;27.662;2023-02-04T06:18:41;98614.38;;;-4.22;100.00
56912;BME280;42800;53.928;27.662;2023-02-04T06:21:07;98568.41;;;-4.58;100.00
56912;BME280;42800;53.928;27.662;2023-02-04T06:23:34;98601.50;;;-4.20;100.00
56912;BME280;42800;53.928;27.662;2023-02-04T06:26:00;98583.84;;;-3.92;100.00
56912;BME280;42800;53.928;27.662;2023-02-04T06:28:27;98526.72;;;-4.06;100.00
56912;BME280;42800;53.928;27.662;2023-02-04T06:30:53;98492.97;;;-4.07;100.00
56912;BME280;42800;53.928;27.662;2023-02-04T06:33:19;98465.16;;;-3.87;100.00
56912;BME280;42800;53.928;27.662;2023-02-04T06:35:47;98454.44;;;-4.06;100.00
56912;BME280;42800;53.928;27.662;2023-02-04T06:38:13;98464.59;;;-4.08;100.00
56912;BME280;42800;53.928;27.662;2023-02-04T06:40:40;98440.50;;;-4.08;100.00
56912;BME280;42800;53.928;27.662;2023-02-04T06:43:06;98451.97;;;-4.03;100.00
56912;BME280;42800;53.928;27.662;2023-02-04T06:45:33;98431.16;;;-4.30;100.00
56912;BME280;42800;53.928;27.662;2023-02-04T06:48:00;98461.59;;;-4.26;100.00
56912;BME280;42800;53.928;27.662;2023-02-04T06:50:26;98458.75;;;-4.34;100.00
56912;BME280;42800;53.928;27.662;2023-02-04T06:52:52;98472.69;;;-4.13;100.00
56912;BME280;42800;53.928;27.662;2023-02-04T06:55:18;98469.22;;;-3.90;100.00
56912;BME280;42800;53.928;27.662;2023-02-04T06:57:45;98462.34;;;-3.96;100.00
56912;BME280;42800;53.928;27.662;2023-02-04T07:00:12;98454.53;;;-3.92;100.00
56912;BME280;42800;53.928;27.662;2023-02-04T07:02:39;98446.00;;;-3.75;100.00
56912;BME280;42800;53.928;27.662;2023-02-04T07:05:07;98435.78;;;-3.92;100.00
56912;BME280;42800;53.928;27.662;2023-02-04T07:07:33;98426.72;;;-3.96;100.00
56912;BME280;42800;53.928;27.662;2023-02-04T07:10:00;98422.16;;;-3.96;100.00
56912;BME280;42800;53.928;27.662;2023-02-04T07:12:26;98442.22;;;-3.74;100.00
56912;BME280;42800;53.928;27.662;2023-02-04T07:14:53;98428.91;;;-3.80;100.00
56912;BME280;42800;53.928;27.662;2023-02-04T07:17:19;98418.69;;;-3.96;100.00
56912;BME280;42800;53.928;27.662;2023-02-04T07:19:46;98430.94;;;-3.71;100.00
56912;BME280;42800;53.928;27.662;2023-02-04T07:22:12;98418.97;;;-3.60;100.00
56912;BME280;42800;53.928;27.662;2023-02-04T07:24:38;98408.56;;;-3.62;100.00
56912;BME280;42800;53.928;27.662;2023-02-04T07:27:05;98394.22;;;-3.71;100.00
56912;BME280;42800;53.928;27.662;2023-02-04T07:29:31;98405.25;;;-3.72;100.00
56912;BME280;42800;53.928;27.662;2023-02-04T07:31:58;98403.84;;;-3.89;100.00
56912;BME280;42800;53.928;27.662;2023-02-04T07:34:24;98410.59;;;-3.91;100.00
56912;BME280;42800;53.928;27.662;2023-02-04T07:36:50;98425.13;;;-3.97;100.00
56912;BME280;42800;53.928;27.662;2023-02-04T07:39:16;98443.81;;;-3.73;100.00
56912;BME280;42800;53.928;27.662;2023-02-04T07:41:42;98421.16;;;-3.43;100.00
56912;BME280;42800;53.928;27.662;2023-02-04T07:44:09;98403.63;;;-3.55;100.00
56912;BME280;42800;53.928;27.662;2023-02-04T07:46:35;98399.78;;;-3.48;100.00
56912;BME280;42800;53.928;27.662;2023-02-04T07:49:02;98403.06;;;-3.89;100.00
56912;BME280;42800;53.928;27.662;2023-02-04T07:51:28;98404.25;;;-3.76;100.00
56912;BME280;42800;53.928;27.662;2023-02-04T07:53:55;98405.19;;;-4.10;100.00
56912;BME280;42800;53.928;27.662;2023-02-04T07:56:21;98427.78;;;-3.97;100.00
56912;BME280;42800;53.928;27.662;2023-02-04T07:58:48;98431.50;;;-3.74;100.00
56912;BME280;42800;53.928;27.662;2023-02-04T08:01:14;98428.91;;;-3.80;100.00
56912;BME280;42800;53.928;27.662;2023-02-04T08:03:41;98434.00;;;-3.59;100.00
56912;BME280;42800;53.928;27.662;2023-02-04T08:06:08;98423.13;;;-3.49;100.00
56912;BME280;42800;53.928;27.662;2023-02-04T08:08:34;98398.28;;;-3.55;100.00
56912;BME280;42800;53.928;27.662;2023-02-04T08:11:00;98384.81;;;-3.87;100.00
56912;BME280;42800;53.928;27.662;2023-02-04T08:13:27;98385.13;;;-3.89;100.00
56912;BME280;42800;53.928;27.662;2023-02-04T08:15:53;98376.78;;;-3.68;100.00
56912;BME280;42800;53.928;27.662;2023-02-04T08:18:19;98380.56;;;-3.88;100.00
56912;BME280;42800;53.928;27.662;2023-02-04T08:20:45;98385.81;;;-3.64;100.00
56912;BME280;42800;53.928;27.662;2023-02-04T08:23:12;98384.00;;;-3.50;100.00
56912;BME280;42800;53.928;27.662;2023-02-04T08:25:38;98401.19;;;-3.89;100.00
56912;BME280;42800;53.928;27.662;2023-02-04T08:28:04;98394.75;;;-3.69;100.00
56912;BME280;42800;53.928;27.662;2023-02-04T08:30:31;98403.91;;;-3.37;100.00
56912;BME280;42800;53.928;27.662;2023-02-04T08:32:57;98404.38;;;-3.49;100.00
56912;BME280;42800;53.928;27.662;2023-02-04T08:35:23;98405.06;;;-3.43;100.00
56912;BME280;42800;53.928;27.662;2023-02-04T08:37:49;98409.00;;;-3.55;100.00
56912;BME280;42800;53.928;27.662;2023-02-04T08:40:18;98415.44;;;-3.56;100.00
56912;BME280;42800;53.928;27.662;2023-02-04T08:42:44;98427.81;;;-3.22;100.00
56912;BME280;42800;53.928;27.662;2023-02-04T08:45:10;98429.44;;;-3.40;100.00
56912;BME280;42800;53.928;27.662;2023-02-04T08:47:36;98437.00;;;-3.47;100.00
56912;BME280;42800;53.928;27.662;2023-02-04T08:50:03;98435.13;;;-3.65;100.00
56912;BME280;42800;53.928;27.662;2023-02-04T08:52:29;98431.38;;;-3.26;100.00
56912;BME280;42800;53.928;27.662;2023-02-04T08:54:55;98448.63;;;-3.33;100.00
56912;BME280;42800;53.928;27.662;2023-02-04T08:57:22;98439.19;;;-3.49;100.00
56912;BME280;42800;53.928;27.662;2023-02-04T08:59:48;98442.66;;;-3.67;100.00
56912;BME280;42800;53.928;27.662;2023-02-04T09:02:14;98443.66;;;-3.63;100.00
56912;BME280;42800;53.928;27.662;2023-02-04T09:04:40;98429.78;;;-3.46;100.00
56912;BME280;42800;53.928;27.662;2023-02-04T09:07:07;98433.16;;;-3.41;100.00
56912;BME280;42800;53.928;27.662;2023-02-04T09:09:33;98438.22;;;-3.20;100.00
56912;BME280;42800;53.928;27.662;2023-02-04T09:11:59;98443.84;;;-3.36;100.00
56912;BME280;42800;53.928;27.662;2023-02-04T09:14:27;98443.88;;;-3.03;100.00
56912;BME280;42800;53.928;27.662;2023-02-04T09:16:53;98442.94;;;-3.12;100.00
56912;BME280;42800;53.928;27.662;2023-02-04T09:19:19;98450.72;;;-3.29;100.00
56912;BME280;42800;53.928;27.662;2023-02-04T09:21:49;98452.66;;;-3.16;100.00
56912;BME280;42800;53.928;27.662;2023-02-04T09:24:16;98453.66;;;-3.12;100.00
56912;BME280;42800;53.928;27.662;2023-02-04T09:26:42;98461.59;;;-3.07;100.00
56912;BME280;42800;53.928;27.662;2023-02-04T09:29:08;98463.47;;;-2.89;100.00
56912;BME280;42800;53.928;27.662;2023-02-04T09:31:35;98479.84;;;-2.90;100.00
56912;BME280;42800;53.928;27.662;2023-02-04T09:34:01;98485.09;;;-2.99;100.00
56912;BME280;42800;53.928;27.662;2023-02-04T09:36:27;98501.44;;;-2.81;100.00
56912;BME280;42800;53.928;27.662;2023-02-04T09:38:55;98516.41;;;-2.62;100.00
56912;BME280;42800;53.928;27.662;2023-02-04T09:41:21;98535.91;;;-2.56;100.00
56912;BME280;42800;53.928;27.662;2023-02-04T09:43:47;98563.88;;;-2.76;100.00
56912;BME280;42800;53.928;27.662;2023-02-04T09:46:18;98571.22;;;-2.49;100.00
56912;BME280;42800;53.928;27.662;2023-02-04T09:48:46;98599.41;;;-2.00;100.00
56912;BME280;42800;53.928;27.662;2023-02-04T09:51:16;98643.25;;;-2.04;100.00
56912;BME280;42800;53.928;27.662;2023-02-04T09:53:43;98677.09;;;-2.22;100.00
56912;BME280;42800;53.928;27.662;2023-02-04T09:56:10;98716.53;;;-2.37;100.00
56912;BME280;42800;53.928;27.662;2023-02-04T09:58:38;98730.16;;;-2.52;100.00
56912;BME280;42800;53.928;27.662;2023-02-04T10:01:10;98742.84;;;-2.57;100.00
56912;BME280;42800;53.928;27.662;2023-02-04T10:03:39;98738.31;;;-2.81;100.00
56912;BME280;42800;53.928;27.662;2023-02-04T10:06:12;98724.72;;;-2.28;100.00
56912;BME280;42800;53.928;27.662;2023-02-04T10:08:39;98722.88;;;-2.14;100.00
56912;BME280;42800;53.928;27.662;2023-02-04T10:11:05;98747.31;;;-2.72;100.00
56912;BME280;42800;53.928;27.662;2023-02-04T10:13:36;98754.75;;;-2.45;100.00
56912;BME280;42800;53.928;27.662;2023-02-04T10:16:13;98763.03;;;-2.41;100.00
56912;BME280;42800;53.928;27.662;2023-02-04T10:18:39;98762.28;;;-2.66;100.00
56912;BME280;42800;53.928;27.662;2023-02-04T10:21:13;98754.84;;;-2.50;100.00
56912;BME280;42800;53.928;27.662;2023-02-04T10:23:42;98758.19;;;-2.39;100.00
56912;BME280;42800;53.928;27.662;2023-02-04T10:26:10;98767.44;;;-2.50;100.00
56912;BME280;42800;53.928;27.662;2023-02-04T10:28:37;98753.31;;;-2.18;100.00
56912;BME280;42800;53.928;27.662;2023-02-04T10:31:05;98755.53;;;-1.87;100.00
56912;BME280;42800;53.928;27.662;2023-02-04T10:33:33;98743.03;;;-2.30;100.00
56912;BME280;42800;53.928;27.662;2023-02-04T10:36:03;98717.22;;;-2.12;100.00
56912;BME280;42800;53.928;27.662;2023-02-04T10:38:30;98714.28;;;-2.29;100.00
56912;BME280;42800;53.928;27.662;2023-02-04T10:41:00;98711.38;;;-2.33;100.00
56912;BME280;42800;53.928;27.662;2023-02-04T10:43:26;98710.13;;;-2.41;100.00
56912;BME280;42800;53.928;27.662;2023-02-04T10:45:56;98714.31;;;-2.53;100.00
56912;BME280;42800;53.928;27.662;2023-02-04T10:48:23;98696.44;;;-2.39;100.00
56912;BME280;42800;53.928;27.662;2023-02-04T10:50:49;98689.16;;;-2.39;100.00
56912;BME280;42800;53.928;27.662;2023-02-04T10:53:17;98695.16;;;-2.09;100.00
56912;BME280;42800;53.928;27.662;2023-02-04T10:56:04;98726.69;;;-1.82;100.00
56912;BME280;42800;53.928;27.662;2023-02-04T10:58:31;98741.03;;;-2.05;100.00
56912;BME280;42800;53.928;27.662;2023-02-04T11:00:57;98752.63;;;-2.10;100.00
56912;BME280;42800;53.928;27.662;2023-02-04T11:03:25;98775.44;;;-1.88;100.00
56912;BME280;42800;53.928;27.662;2023-02-04T11:05:56;98765.22;;;-2.05;100.00
56912;BME280;42800;53.928;27.662;2023-02-04T11:08:24;98783.22;;;-2.25;100.00
56912;BME280;42800;53.928;27.662;2023-02-04T11:10:55;98760.78;;;-2.34;100.00
56912;BME280;42800;53.928;27.662;2023-02-04T11:13:24;98752.72;;;-2.34;100.00
56912;BME280;42800;53.928;27.662;2023-02-04T11:16:07;98735.50;;;-2.14;100.00
56912;BME280;42800;53.928;27.662;2023-02-04T11:18:44;98749.56;;;-2.60;100.00
56912;BME280;42800;53.928;27.662;2023-02-04T11:21:14;98719.50;;;-2.38;100.00
56912;BME280;42800;53.928;27.662;2023-02-04T11:23:40;98710.28;;;-2.51;100.00
56912;BME280;42800;53.928;27.662;2023-02-04T11:26:11;98702.84;;;-2.78;100.00
56912;BME280;42800;53.928;27.662;2023-02-04T11:28:47;98662.38;;;-2.44;100.00
56912;BME280;42800;53.928;27.662;2023-02-04T11:31:28;98618.00;;;-2.36;100.00
56912;BME280;42800;53.928;27.662;2023-02-04T11:34:10;98580.03;;;-2.29;100.00
56912;BME280;42800;53.928;27.662;2023-02-04T11:36:50;98553.47;;;-2.17;100.00
56912;BME280;42800;53.928;27.662;2023-02-04T11:39:20;98551.50;;;-2.11;100.00
56912;BME280;42800;53.928;27.662;2023-02-04T11:41:46;98557.63;;;-2.39;100.00
56912;BME280;42800;53.928;27.662;2023-02-04T11:44:14;98572.72;;;-2.43;100.00
56912;BME280;42800;53.928;27.662;2023-02-04T11:46:41;98608.78;;;-2.30;100.00
56912;BME280;42800;53.928;27.662;2023-02-04T11:49:15;98629.22;;;-2.34;100.00
56912;BME280;42800;53.928;27.662;2023-02-04T11:51:43;98635.31;;;-2.28;100.00
56912;BME280;42800;53.928;27.662;2023-02-04T11:54:13;98626.28;;;-2.51;100.00
56912;BME280;42800;53.928;27.662;2023-02-04T11:56:41;98631.00;;;-2.43;100.00
56912;BME280;42800;53.928;27.662;2023-02-04T11:59:10;98621.84;;;-2.61;100.00
56912;BME280;42800;53.928;27.662;2023-02-04T12:01:37;98617.38;;;-2.66;100.00
56912;BME280;42800;53.928;27.662;2023-02-04T12:04:05;98606.34;;;-2.64;100.00
56912;BME280;42800;53.928;27.662;2023-02-04T12:06:33;98596.00;;;-2.38;100.00
56912;BME280;42800;53.928;27.662;2023-02-04T12:09:06;98580.84;;;-2.48;100.00
56912;BME280;42800;53.928;27.662;2023-02-04T12:11:33;98575.66;;;-2.58;100.00
56912;BME280;42800;53.928;27.662;2023-02-04T12:14:07;98583.25;;;-2.46;100.00
56912;BME280;42800;53.928;27.662;2023-02-04T12:16:40;98587.59;;;-2.50;100.00
56912;BME280;42800;53.928;27.662;2023-02-04T12:19:06;98591.16;;;-2.55;100.00
56912;BME280;42800;53.928;27.662;2023-02-04T12:21:32;98614.28;;;-2.40;100.00
56912;BME280;42800;53.928;27.662;2023-02-04T12:23:59;98641.00;;;-2.49;100.00
56912;BME280;42800;53.928;27.662;2023-02-04T12:26:25;98660.38;;;-2.52;100.00
56912;BME280;42800;53.928;27.662;2023-02-04T12:28:51;98664.31;;;-2.63;100.00
56912;BME280;42800;53.928;27.662;2023-02-04T12:31:17;98667.91;;;-2.35;100.00
56912;BME280;42800;53.928;27.662;2023-02-04T12:33:44;98687.50;;;-2.34;100.00
56912;BME280;42800;53.928;27.662;2023-02-04T12:36:11;98701.88;;;-2.63;100.00
56912;BME280;42800;53.928;27.662;2023-02-04T12:38:37;98691.78;;;-2.52;100.00
56912;BME280;42800;53.928;27.662;2023-02-04T12:41:03;98690.53;;;-2.60;100.00